sensor_id;sensor_type;location;lat;lon;timestamp;pressure;altitude;pressure_sealevel;temperature;humidity
11017;BME280;54687;50.800;6.772;2023-08-08T00:00:12;94330.38;;;-144.06;26.74
11017;BME280;54687;50.800;6.772;2023-08-08T00:02:39;94326.13;;;-144.06;27.30
11017;BME280;54687;50.800;6.772;2023-08-08T00:05:06;94268.97;;;-144.06;26.95
11017;BME280;54687;50.800;6.772;2023-08-08T00:07:33;94317.66;;;-144.06;27.13
11017;BME280;54687;50.800;6.772;2023-08-08T00:10:01;94319.78;;;-144.06;27.22
11017;BME280;54687;50.800;6.772;2023-08-08T00:12:29;94330.38;;;-144.06;27.12
11017;BME280;54687;50.800;6.772;2023-08-08T00:14:55;94321.91;;;-144.06;26.86
11017;BME280;54687;50.800;6.772;2023-08-08T00:17:22;94353.66;;;-144.06;27.22
11017;BME280;54687;50.800;6.772;2023-08-08T00:19:53;94336.72;;;-144.06;27.16
11017;BME280;54687;50.800;6.772;2023-08-08T00:22:23;94315.53;;;-144.06;26.91
11017;BME280;54687;50.800;6.772;2023-08-08T00:24:52;94321.91;;;-144.06;27.08
11017;BME280;54687;50.800;6.772;2023-08-08T00:27:23;94349.41;;;-144.06;26.88
11017;BME280;54687;50.800;6.772;2023-08-08T00:29:52;94379.03;;;-144.06;26.94
11017;BME280;54687;50.800;6.772;2023-08-08T00:32:22;94349.41;;;-144.06;27.23
11017;BME280;54687;50.800;6.772;2023-08-08T00:34:50;94364.22;;;-144.06;26.93
11017;BME280;54687;50.800;6.772;2023-08-08T00:37:18;94427.72;;;-144.06;27.03
11017;BME280;54687;50.800;6.772;2023-08-08T00:39:48;94415.03;;;-144.06;27.33
11017;BME280;54687;50.800;6.772;2023-08-08T00:42:16;94398.09;;;-144.06;27.04
11017;BME280;54687;50.800;6.772;2023-08-08T00:44:48;94467.94;;;-144.06;27.28
11017;BME280;54687;50.800;6.772;2023-08-08T00:47:14;94425.59;;;-144.06;27.22
11017;BME280;54687;50.800;6.772;2023-08-08T00:49:41;94482.75;;;-144.06;27.14
11017;BME280;54687;50.800;6.772;2023-08-08T00:52:09;94436.19;;;-144.06;27.21
11017;BME280;54687;50.800;6.772;2023-08-08T00:54:36;94455.25;;;-144.06;27.34
11017;BME280;54687;50.800;6.772;2023-08-08T00:57:03;94489.13;;;-144.06;27.29
11017;BME280;54687;50.800;6.772;2023-08-08T00:59:30;94431.97;;;-144.06;27.24
11017;BME280;54687;50.800;6.772;2023-08-08T01:01:59;94467.94;;;-144.06;27.30
11017;BME280;54687;50.800;6.772;2023-08-08T01:04:26;94465.81;;;-144.06;27.13
11017;BME280;54687;50.800;6.772;2023-08-08T01:06:58;94537.78;;;-144.06;27.07
11017;BME280;54687;50.800;6.772;2023-08-08T01:09:33;94556.84;;;-144.06;27.52
11017;BME280;54687;50.800;6.772;2023-08-08T01:12:04;94582.25;;;-144.06;27.57
11017;BME280;54687;50.800;6.772;2023-08-08T01:14:32;94556.84;;;-144.06;27.36
11017;BME280;54687;50.800;6.772;2023-08-08T01:17:02;94544.16;;;-144.06;27.33
11017;BME280;54687;50.800;6.772;2023-08-08T01:19:31;94527.22;;;-144.06;27.30
11017;BME280;54687;50.800;6.772;2023-08-08T01:22:01;94495.47;;;-144.06;27.38
11017;BME280;54687;50.800;6.772;2023-08-08T01:24:30;94506.03;;;-144.06;27.05
11017;BME280;54687;50.800;6.772;2023-08-08T01:26:58;94506.03;;;-144.06;27.21
11017;BME280;54687;50.800;6.772;2023-08-08T01:29:25;94533.56;;;-144.06;27.25
11017;BME280;54687;50.800;6.772;2023-08-08T01:31:52;94529.31;;;-144.06;27.60
11017;BME280;54687;50.800;6.772;2023-08-08T01:34:19;94575.91;;;-144.06;27.54
11017;BME280;54687;50.800;6.772;2023-08-08T01:36:48;94569.53;;;-144.06;27.55
11017;BME280;54687;50.800;6.772;2023-08-08T01:39:20;94561.09;;;-144.06;27.20
11017;BME280;54687;50.800;6.772;2023-08-08T01:41:50;94556.84;;;-144.06;27.35
11017;BME280;54687;50.800;6.772;2023-08-08T01:44:19;94550.50;;;-144.06;27.11
11017;BME280;54687;50.800;6.772;2023-08-08T01:46:46;94533.56;;;-144.06;27.32
11017;BME280;54687;50.800;6.772;2023-08-08T01:49:13;94529.31;;;-144.06;27.20
11017;BME280;54687;50.800;6.772;2023-08-08T01:51:40;94546.25;;;-144.06;27.28
11017;BME280;54687;50.800;6.772;2023-08-08T01:54:06;94552.63;;;-144.06;27.40
11017;BME280;54687;50.800;6.772;2023-08-08T01:56:33;94569.53;;;-144.06;27.67
11017;BME280;54687;50.800;6.772;2023-08-08T01:59:01;94527.22;;;-144.06;27.57
11017;BME280;54687;50.800;6.772;2023-08-08T02:01:27;94658.44;;;-144.06;27.37
11017;BME280;54687;50.800;6.772;2023-08-08T02:03:54;94575.91;;;-144.06;27.32
11017;BME280;54687;50.800;6.772;2023-08-08T02:06:21;94573.78;;;-144.06;27.36
11017;BME280;54687;50.800;6.772;2023-08-08T02:08:47;94584.38;;;-144.06;27.77
11017;BME280;54687;50.800;6.772;2023-08-08T02:11:14;94554.72;;;-144.06;27.63
11017;BME280;54687;50.800;6.772;2023-08-08T02:13:41;94561.09;;;-144.06;27.31
11017;BME280;54687;50.800;6.772;2023-08-08T02:16:08;94565.31;;;-144.06;27.35
11017;BME280;54687;50.800;6.772;2023-08-08T02:18:35;94552.63;;;-144.06;27.56
11017;BME280;54687;50.800;6.772;2023-08-08T02:21:06;94569.53;;;-144.06;27.36
11017;BME280;54687;50.800;6.772;2023-08-08T02:23:32;94578.00;;;-144.06;27.31
11017;BME280;54687;50.800;6.772;2023-08-08T02:25:59;94561.09;;;-144.06;27.49
11017;BME280;54687;50.800;6.772;2023-08-08T02:28:25;94531.44;;;-144.06;27.78
11017;BME280;54687;50.800;6.772;2023-08-08T02:30:53;94611.88;;;-144.06;27.72
11017;BME280;54687;50.800;6.772;2023-08-08T02:33:21;94554.72;;;-144.06;27.72
11017;BME280;54687;50.800;6.772;2023-08-08T02:35:48;94569.53;;;-144.06;28.01
11017;BME280;54687;50.800;6.772;2023-08-08T02:38:15;94578.00;;;-144.06;27.60
11017;BME280;54687;50.800;6.772;2023-08-08T02:40:41;94582.25;;;-144.06;27.65
11017;BME280;54687;50.800;6.772;2023-08-08T02:43:08;94586.47;;;-144.06;27.44
11017;BME280;54687;50.800;6.772;2023-08-08T02:45:36;94611.88;;;-144.06;27.52
11017;BME280;54687;50.800;6.772;2023-08-08T02:48:03;94594.94;;;-144.06;27.67
11017;BME280;54687;50.800;6.772;2023-08-08T02:50:31;94594.94;;;-144.06;27.99
11017;BME280;54687;50.800;6.772;2023-08-08T02:52:58;94558.97;;;-144.06;27.54
11017;BME280;54687;50.800;6.772;2023-08-08T02:55:25;94552.63;;;-144.06;27.43
11017;BME280;54687;50.800;6.772;2023-08-08T02:57:51;94599.19;;;-144.06;27.50
11017;BME280;54687;50.800;6.772;2023-08-08T03:00:18;94567.44;;;-144.06;27.66
11017;BME280;54687;50.800;6.772;2023-08-08T03:02:44;94573.78;;;-144.06;27.66
11017;BME280;54687;50.800;6.772;2023-08-08T03:05:11;94544.16;;;-144.06;27.62
11017;BME280;54687;50.800;6.772;2023-08-08T03:07:39;94616.13;;;-144.06;27.34
11017;BME280;54687;50.800;6.772;2023-08-08T03:10:06;94624.59;;;-144.06;27.57
11017;BME280;54687;50.800;6.772;2023-08-08T03:12:32;94616.13;;;-144.06;27.61
11017;BME280;54687;50.800;6.772;2023-08-08T03:14:59;94658.44;;;-144.06;27.40
11017;BME280;54687;50.800;6.772;2023-08-08T03:17:25;94702.91;;;-144.06;27.47
11017;BME280;54687;50.800;6.772;2023-08-08T03:19:52;94673.28;;;-144.06;27.62
11017;BME280;54687;50.800;6.772;2023-08-08T03:22:19;94707.13;;;-144.06;27.71
11017;BME280;54687;50.800;6.772;2023-08-08T03:24:47;94656.34;;;-144.06;27.63
11017;BME280;54687;50.800;6.772;2023-08-08T03:27:13;94666.91;;;-144.06;27.54
11017;BME280;54687;50.800;6.772;2023-08-08T03:29:40;94707.13;;;-144.06;27.63
11017;BME280;54687;50.800;6.772;2023-08-08T03:32:07;94764.28;;;-144.06;27.51
11017;BME280;54687;50.800;6.772;2023-08-08T03:34:33;94709.25;;;-144.06;27.70
11017;BME280;54687;50.800;6.772;2023-08-08T03:37:00;94732.53;;;-144.06;27.60
11017;BME280;54687;50.800;6.772;2023-08-08T03:39:27;94793.94;;;-144.06;27.54
11017;BME280;54687;50.800;6.772;2023-08-08T03:41:54;94777.00;;;-144.06;27.82
11017;BME280;54687;50.800;6.772;2023-08-08T03:44:21;94793.94;;;-144.06;27.69
11017;BME280;54687;50.800;6.772;2023-08-08T03:46:48;94747.38;;;-144.06;27.53
11017;BME280;54687;50.800;6.772;2023-08-08T03:49:15;94730.44;;;-144.06;27.55
11017;BME280;54687;50.800;6.772;2023-08-08T03:51:41;94726.19;;;-144.06;27.48
11017;BME280;54687;50.800;6.772;2023-08-08T03:54:08;94747.38;;;-144.06;27.57
11017;BME280;54687;50.800;6.772;2023-08-08T03:56:34;94762.19;;;-144.06;27.48
11017;BME280;54687;50.800;6.772;2023-08-08T03:59:02;94717.72;;;-144.06;27.48
11017;BME280;54687;50.800;6.772;2023-08-08T04:01:29;94743.13;;;-144.06;27.69
11017;BME280;54687;50.800;6.772;2023-08-08T04:03:56;94719.84;;;-144.06;27.68
11017;BME280;54687;50.800;6.772;2023-08-08T04:06:22;94705.03;;;-144.06;27.68
11017;BME280;54687;50.800;6.772;2023-08-08T04:08:49;94719.84;;;-144.06;27.50
11017;BME280;54687;50.800;6.772;2023-08-08T04:11:15;94724.06;;;-144.06;27.71
11017;BME280;54687;50.800;6.772;2023-08-08T04:13:42;94726.19;;;-144.06;27.67
11017;BME280;54687;50.800;6.772;2023-08-08T04:16:10;94730.44;;;-144.06;27.69
11017;BME280;54687;50.800;6.772;2023-08-08T04:18:36;94726.19;;;-144.06;27.56
11017;BME280;54687;50.800;6.772;2023-08-08T04:21:03;94715.59;;;-144.06;27.80
11017;BME280;54687;50.800;6.772;2023-08-08T04:23:30;94709.25;;;-144.06;27.55
11017;BME280;54687;50.800;6.772;2023-08-08T04:25:56;94721.97;;;-144.06;27.51
11017;BME280;54687;50.800;6.772;2023-08-08T04:28:23;94717.72;;;-144.06;27.66
11017;BME280;54687;50.800;6.772;2023-08-08T04:30:49;94730.44;;;-144.06;27.50
11017;BME280;54687;50.800;6.772;2023-08-08T04:33:17;94717.72;;;-144.06;27.56
11017;BME280;54687;50.800;6.772;2023-08-08T04:35:44;94721.97;;;-144.06;27.60
11017;BME280;54687;50.800;6.772;2023-08-08T04:38:14;94683.84;;;-144.06;27.66
11017;BME280;54687;50.800;6.772;2023-08-08T04:40:40;94662.69;;;-144.06;27.72
11017;BME280;54687;50.800;6.772;2023-08-08T04:43:07;94637.28;;;-144.06;27.50
11017;BME280;54687;50.800;6.772;2023-08-08T04:45:33;94616.13;;;-144.06;27.35
11017;BME280;54687;50.800;6.772;2023-08-08T04:48:00;94618.22;;;-144.06;27.55
11017;BME280;54687;50.800;6.772;2023-08-08T04:50:28;94618.22;;;-144.06;27.31
11017;BME280;54687;50.800;6.772;2023-08-08T04:52:55;94601.31;;;-144.06;27.42
11017;BME280;54687;50.800;6.772;2023-08-08T04:55:21;94586.47;;;-144.06;27.41
11017;BME280;54687;50.800;6.772;2023-08-08T04:57:48;94548.38;;;-144.06;27.41
11017;BME280;54687;50.800;6.772;2023-08-08T05:00:15;94531.44;;;-144.06;27.37
11017;BME280;54687;50.800;6.772;2023-08-08T05:02:41;94446.78;;;-144.06;27.43
11017;BME280;54687;50.800;6.772;2023-08-08T05:05:08;94444.66;;;-144.06;27.08
11017;BME280;54687;50.800;6.772;2023-08-08T05:07:37;94410.78;;;-144.06;27.24
11017;BME280;54687;50.800;6.772;2023-08-08T05:10:05;94374.81;;;-144.06;27.23
11017;BME280;54687;50.800;6.772;2023-08-08T05:12:32;94340.94;;;-144.06;27.05
11017;BME280;54687;50.800;6.772;2023-08-08T05:14:58;94268.97;;;-144.06;26.69
11017;BME280;54687;50.800;6.772;2023-08-08T05:17:25;94264.75;;;-144.06;26.82
11017;BME280;54687;50.800;6.772;2023-08-08T05:19:52;94226.66;;;-144.06;26.54
11017;BME280;54687;50.800;6.772;2023-08-08T05:22:18;94163.16;;;-144.06;26.73
11017;BME280;54687;50.800;6.772;2023-08-08T05:24:46;94103.88;;;-144.06;26.52
11017;BME280;54687;50.800;6.772;2023-08-08T05:27:15;93989.59;;;-144.06;26.37
11017;BME280;54687;50.800;6.772;2023-08-08T05:29:42;93926.09;;;-144.06;26.69
11017;BME280;54687;50.800;6.772;2023-08-08T05:32:08;93909.19;;;-144.06;26.36
11017;BME280;54687;50.800;6.772;2023-08-08T05:34:35;93854.16;;;-144.06;26.16
11017;BME280;54687;50.800;6.772;2023-08-08T05:37:02;93877.44;;;-144.06;26.17
11017;BME280;54687;50.800;6.772;2023-08-08T05:39:29;93826.63;;;-144.06;26.11
11017;BME280;54687;50.800;6.772;2023-08-08T05:41:57;93875.31;;;-144.06;26.40
11017;BME280;54687;50.800;6.772;2023-08-08T05:44:24;93828.75;;;-144.06;26.42
11017;BME280;54687;50.800;6.772;2023-08-08T05:46:50;93761.03;;;-144.06;26.35
11017;BME280;54687;50.800;6.772;2023-08-08T05:49:17;93775.84;;;-144.06;26.59
11017;BME280;54687;50.800;6.772;2023-08-08T05:51:43;93777.97;;;-144.06;26.81
11017;BME280;54687;50.800;6.772;2023-08-08T05:54:10;93803.38;;;-144.06;26.99
11017;BME280;54687;50.800;6.772;2023-08-08T05:56:37;93758.91;;;-144.06;26.88
11017;BME280;54687;50.800;6.772;2023-08-08T05:59:05;93706.00;;;-144.06;27.05
11017;BME280;54687;50.800;6.772;2023-08-08T06:01:32;93674.25;;;-144.06;26.91
11017;BME280;54687;50.800;6.772;2023-08-08T06:03:59;93612.91;;;-144.06;26.67
11017;BME280;54687;50.800;6.772;2023-08-08T06:06:26;93473.22;;;-144.06;26.57
11017;BME280;54687;50.800;6.772;2023-08-08T06:08:52;93320.88;;;-144.06;26.62
11017;BME280;54687;50.800;6.772;2023-08-08T06:11:20;93183.34;;;-144.06;26.15
11017;BME280;54687;50.800;6.772;2023-08-08T06:13:47;92980.22;;;-144.06;25.70
11017;BME280;54687;50.800;6.772;2023-08-08T06:16:15;92914.63;;;-144.06;25.96
11017;BME280;54687;50.800;6.772;2023-08-08T06:18:44;92772.88;;;-144.06;25.69
11017;BME280;54687;50.800;6.772;2023-08-08T06:21:10;92571.88;;;-144.06;25.11
11017;BME280;54687;50.800;6.772;2023-08-08T06:23:37;92601.50;;;-144.06;24.83
11017;BME280;54687;50.800;6.772;2023-08-08T06:26:04;92504.19;;;-144.06;24.79
11017;BME280;54687;50.800;6.772;2023-08-08T06:28:31;92385.72;;;-144.06;24.39
11017;BME280;54687;50.800;6.772;2023-08-08T06:30:58;92364.56;;;-144.06;24.48
11017;BME280;54687;50.800;6.772;2023-08-08T06:33:26;92470.34;;;-144.06;24.03
11017;BME280;54687;50.800;6.772;2023-08-08T06:35:52;92415.34;;;-144.06;24.36
11017;BME280;54687;50.800;6.772;2023-08-08T06:38:19;92491.50;;;-144.06;24.10
11017;BME280;54687;50.800;6.772;2023-08-08T06:40:45;92569.78;;;-144.06;24.22
11017;BME280;54687;50.800;6.772;2023-08-08T06:43:12;92698.81;;;-144.06;24.56
11017;BME280;54687;50.800;6.772;2023-08-08T06:45:39;92743.25;;;-144.06;24.27
11017;BME280;54687;50.800;6.772;2023-08-08T06:48:06;92715.75;;;-144.06;24.75
11017;BME280;54687;50.800;6.772;2023-08-08T06:50:34;92605.75;;;-144.06;24.58
11017;BME280;54687;50.800;6.772;2023-08-08T06:53:02;92538.03;;;-144.06;23.99
11017;BME280;54687;50.800;6.772;2023-08-08T06:55:29;92351.88;;;-144.06;24.24
11017;BME280;54687;50.800;6.772;2023-08-08T06:57:56;92131.88;;;-144.06;23.78
11017;BME280;54687;50.800;6.772;2023-08-08T07:00:22;91793.44;;;-144.06;23.87
11017;BME280;54687;50.800;6.772;2023-08-08T07:02:49;91746.91;;;-144.06;23.15
11017;BME280;54687;50.800;6.772;2023-08-08T07:05:16;91632.72;;;-144.06;23.33
11017;BME280;54687;50.800;6.772;2023-08-08T07:07:44;91677.13;;;-144.06;22.81
11017;BME280;54687;50.800;6.772;2023-08-08T07:10:11;91628.47;;;-144.06;23.13
11017;BME280;54687;50.800;6.772;2023-08-08T07:12:38;91647.50;;;-144.06;23.26
11017;BME280;54687;50.800;6.772;2023-08-08T07:15:08;91844.22;;;-144.06;23.17
11017;BME280;54687;50.800;6.772;2023-08-08T07:17:35;92070.53;;;-144.06;23.72
11017;BME280;54687;50.800;6.772;2023-08-08T07:20:02;92072.66;;;-144.06;23.67
11017;BME280;54687;50.800;6.772;2023-08-08T07:22:30;92085.34;;;-144.06;23.47
11017;BME280;54687;50.800;6.772;2023-08-08T07:24:59;92148.81;;;-144.06;23.47
11017;BME280;54687;50.800;6.772;2023-08-08T07:27:26;92267.25;;;-144.06;23.55
11017;BME280;54687;50.800;6.772;2023-08-08T07:29:53;92402.66;;;-144.06;23.89
11017;BME280;54687;50.800;6.772;2023-08-08T07:32:19;92383.59;;;-144.06;24.14
11017;BME280;54687;50.800;6.772;2023-08-08T07:34:46;92339.19;;;-144.06;23.89
11017;BME280;54687;50.800;6.772;2023-08-08T07:37:14;92370.91;;;-144.06;23.99
11017;BME280;54687;50.800;6.772;2023-08-08T07:39:40;92404.75;;;-144.06;23.99
11017;BME280;54687;50.800;6.772;2023-08-08T07:42:08;92368.81;;;-144.06;23.89
11017;BME280;54687;50.800;6.772;2023-08-08T07:44:35;92707.28;;;-144.06;24.42
11017;BME280;54687;50.800;6.772;2023-08-08T07:47:04;92593.03;;;-144.06;24.33
11017;BME280;54687;50.800;6.772;2023-08-08T07:49:30;92425.91;;;-144.06;23.99
11017;BME280;54687;50.800;6.772;2023-08-08T07:51:57;92523.22;;;-144.06;24.40
11017;BME280;54687;50.800;6.772;2023-08-08T07:54:23;92468.22;;;-144.06;23.89
11017;BME280;54687;50.800;6.772;2023-08-08T07:56:50;92440.72;;;-144.06;23.92
11017;BME280;54687;50.800;6.772;2023-08-08T07:59:18;92284.19;;;-144.06;23.72
11017;BME280;54687;50.800;6.772;2023-08-08T08:01:45;92140.34;;;-144.06;23.84
11017;BME280;54687;50.800;6.772;2023-08-08T08:04:12;92174.19;;;-144.06;23.87
11017;BME280;54687;50.800;6.772;2023-08-08T08:06:38;92309.56;;;-144.06;23.75
11017;BME280;54687;50.800;6.772;2023-08-08T08:09:05;92332.84;;;-144.06;23.73
11017;BME280;54687;50.800;6.772;2023-08-08T08:11:32;92351.88;;;-144.06;23.99
11017;BME280;54687;50.800;6.772;2023-08-08T08:13:59;92364.56;;;-144.06;24.02
11017;BME280;54687;50.800;6.772;2023-08-08T08:16:27;92279.94;;;-144.06;24.04
11017;BME280;54687;50.800;6.772;2023-08-08T08:18:53;92271.50;;;-144.06;23.76
11017;BME280;54687;50.800;6.772;2023-08-08T08:21:21;92279.94;;;-144.06;23.86
11017;BME280;54687;50.800;6.772;2023-08-08T08:23:48;92296.88;;;-144.06;23.87
11017;BME280;54687;50.800;6.772;2023-08-08T08:26:14;92131.88;;;-144.06;23.59
11017;BME280;54687;50.800;6.772;2023-08-08T08:28:41;92258.81;;;-144.06;23.80
11017;BME280;54687;50.800;6.772;2023-08-08T08:31:08;92275.72;;;-144.06;23.83
11017;BME280;54687;50.800;6.772;2023-08-08T08:33:36;92250.34;;;-144.06;23.58
11017;BME280;54687;50.800;6.772;2023-08-08T08:36:03;92224.94;;;-144.06;23.62
11017;BME280;54687;50.800;6.772;2023-08-08T08:38:29;92165.72;;;-144.06;23.32
11017;BME280;54687;50.800;6.772;2023-08-08T08:40:57;92072.66;;;-144.06;23.39
11017;BME280;54687;50.800;6.772;2023-08-08T08:43:24;92045.16;;;-144.06;23.28
11017;BME280;54687;50.800;6.772;2023-08-08T08:45:53;92119.19;;;-144.06;23.34
11017;BME280;54687;50.800;6.772;2023-08-08T08:48:21;92026.13;;;-144.06;23.14
11017;BME280;54687;50.800;6.772;2023-08-08T08:50:49;91780.75;;;-144.06;23.32
11017;BME280;54687;50.800;6.772;2023-08-08T08:53:16;91647.50;;;-144.06;23.37
11017;BME280;54687;50.800;6.772;2023-08-08T08:55:43;91907.66;;;-144.06;22.72
11017;BME280;54687;50.800;6.772;2023-08-08T08:58:11;91730.00;;;-144.06;22.87
11017;BME280;54687;50.800;6.772;2023-08-08T09:00:40;91615.78;;;-144.06;22.59
11017;BME280;54687;50.800;6.772;2023-08-08T09:03:07;91687.69;;;-144.06;22.52
11017;BME280;54687;50.800;6.772;2023-08-08T09:05:34;91575.59;;;-144.06;22.42
11017;BME280;54687;50.800;6.772;2023-08-08T09:08:04;91531.19;;;-144.06;22.60
11017;BME280;54687;50.800;6.772;2023-08-08T09:10:31;91571.38;;;-144.06;22.66
11017;BME280;54687;50.800;6.772;2023-08-08T09:12:58;91381.03;;;-144.06;22.62
11017;BME280;54687;50.800;6.772;2023-08-08T09:15:24;91262.59;;;-144.06;22.56
11017;BME280;54687;50.800;6.772;2023-08-08T09:17:53;91311.25;;;-144.06;22.40
11017;BME280;54687;50.800;6.772;2023-08-08T09:20:20;91235.13;;;-144.06;22.29
11017;BME280;54687;50.800;6.772;2023-08-08T09:22:47;91374.69;;;-144.06;22.15
11017;BME280;54687;50.800;6.772;2023-08-08T09:25:16;91296.44;;;-144.06;22.20
11017;BME280;54687;50.800;6.772;2023-08-08T09:27:42;91302.78;;;-144.06;22.34
11017;BME280;54687;50.800;6.772;2023-08-08T09:30:10;91309.13;;;-144.06;22.33
11017;BME280;54687;50.800;6.772;2023-08-08T09:32:37;91264.72;;;-144.06;22.35
11017;BME280;54687;50.800;6.772;2023-08-08T09:35:04;91315.47;;;-144.06;22.37
11017;BME280;54687;50.800;6.772;2023-08-08T09:37:35;91256.25;;;-144.06;22.11
11017;BME280;54687;50.800;6.772;2023-08-08T09:40:04;91357.78;;;-144.06;22.00
11017;BME280;54687;50.800;6.772;2023-08-08T09:42:35;91277.41;;;-144.06;22.07
11017;BME280;54687;50.800;6.772;2023-08-08T09:45:02;91224.53;;;-144.06;22.26
11017;BME280;54687;50.800;6.772;2023-08-08T09:47:29;91192.81;;;-144.06;22.01
11017;BME280;54687;50.800;6.772;2023-08-08T09:49:57;91307.03;;;-144.06;22.33
11017;BME280;54687;50.800;6.772;2023-08-08T09:52:26;91391.59;;;-144.06;22.39
11017;BME280;54687;50.800;6.772;2023-08-08T09:54:54;91370.47;;;-144.06;22.33
11017;BME280;54687;50.800;6.772;2023-08-08T09:57:22;91548.09;;;-144.06;22.17
11017;BME280;54687;50.800;6.772;2023-08-08T09:59:51;91362.00;;;-144.06;22.05
11017;BME280;54687;50.800;6.772;2023-08-08T10:02:17;91480.44;;;-144.06;22.22
11017;BME280;54687;50.800;6.772;2023-08-08T10:04:45;91535.41;;;-144.06;22.23
11017;BME280;54687;50.800;6.772;2023-08-08T10:07:11;91340.84;;;-144.06;22.27
11017;BME280;54687;50.800;6.772;2023-08-08T10:09:38;91419.09;;;-144.06;22.17
11017;BME280;54687;50.800;6.772;2023-08-08T10:12:07;91543.88;;;-144.06;22.20
11017;BME280;54687;50.800;6.772;2023-08-08T10:14:35;91446.59;;;-144.06;22.00
11017;BME280;54687;50.800;6.772;2023-08-08T10:17:05;91590.41;;;-144.06;22.22
11017;BME280;54687;50.800;6.772;2023-08-08T10:19:32;91459.28;;;-144.06;22.03
11017;BME280;54687;50.800;6.772;2023-08-08T10:22:00;91311.25;;;-144.06;22.00
11017;BME280;54687;50.800;6.772;2023-08-08T10:24:33;91307.03;;;-144.06;21.93
11017;BME280;54687;50.800;6.772;2023-08-08T10:27:01;91419.09;;;-144.06;21.85
11017;BME280;54687;50.800;6.772;2023-08-08T10:29:29;91455.06;;;-144.06;22.03
11017;BME280;54687;50.800;6.772;2023-08-08T10:31:59;91307.03;;;-144.06;21.88
11017;BME280;54687;50.800;6.772;2023-08-08T10:34:37;91298.56;;;-144.06;22.04
11017;BME280;54687;50.800;6.772;2023-08-08T10:37:04;91125.16;;;-144.06;22.00
11017;BME280;54687;50.800;6.772;2023-08-08T10:39:31;91013.06;;;-144.06;21.86
11017;BME280;54687;50.800;6.772;2023-08-08T10:42:02;90803.72;;;-144.06;21.85
11017;BME280;54687;50.800;6.772;2023-08-08T10:44:40;90786.81;;;-144.06;21.45
11017;BME280;54687;50.800;6.772;2023-08-08T10:47:08;90850.25;;;-144.06;21.61
11017;BME280;54687;50.800;6.772;2023-08-08T10:49:41;90712.81;;;-144.06;21.54
11017;BME280;54687;50.800;6.772;2023-08-08T10:52:13;90831.22;;;-144.06;21.50
11017;BME280;54687;50.800;6.772;2023-08-08T10:54:52;90837.56;;;-144.06;21.41
11017;BME280;54687;50.800;6.772;2023-08-08T10:57:20;90831.22;;;-144.06;21.47
11017;BME280;54687;50.800;6.772;2023-08-08T10:59:50;91061.72;;;-144.06;21.42
11017;BME280;54687;50.800;6.772;2023-08-08T11:02:17;91013.06;;;-144.06;21.58
11017;BME280;54687;50.800;6.772;2023-08-08T11:04:47;91080.75;;;-144.06;21.71
11017;BME280;54687;50.800;6.772;2023-08-08T11:07:14;90875.63;;;-144.06;21.57
11017;BME280;54687;50.800;6.772;2023-08-08T11:09:42;90896.78;;;-144.06;21.09
11017;BME280;54687;50.800;6.772;2023-08-08T11:12:13;91110.34;;;-144.06;21.39
11017;BME280;54687;50.800;6.772;2023-08-08T11:14:40;91072.28;;;-144.06;21.29
11017;BME280;54687;50.800;6.772;2023-08-08T11:17:07;91137.84;;;-144.06;21.39
11017;BME280;54687;50.800;6.772;2023-08-08T11:19:38;91334.50;;;-144.06;21.54
11017;BME280;54687;50.800;6.772;2023-08-08T11:22:10;91336.63;;;-144.06;21.99
11017;BME280;54687;50.800;6.772;2023-08-08T11:24:37;91298.56;;;-144.06;21.54
11017;BME280;54687;50.800;6.772;2023-08-08T11:27:04;91243.56;;;-144.06;21.51
11017;BME280;54687;50.800;6.772;2023-08-08T11:29:31;91357.78;;;-144.06;21.47
11017;BME280;54687;50.800;6.772;2023-08-08T11:32:00;91273.19;;;-144.06;21.70
11017;BME280;54687;50.800;6.772;2023-08-08T11:34:30;91342.97;;;-144.06;21.39
11017;BME280;54687;50.800;6.772;2023-08-08T11:36:57;91448.72;;;-144.06;21.61
11017;BME280;54687;50.800;6.772;2023-08-08T11:39:26;91326.06;;;-144.06;21.70
11017;BME280;54687;50.800;6.772;2023-08-08T11:41:53;91345.09;;;-144.06;21.59
11017;BME280;54687;50.800;6.772;2023-08-08T11:44:20;91670.78;;;-144.06;21.61
11017;BME280;54687;50.800;6.772;2023-08-08T11:46:47;91694.03;;;-144.06;21.95
11017;BME280;54687;50.800;6.772;2023-08-08T11:49:15;91626.38;;;-144.06;22.03
11017;BME280;54687;50.800;6.772;2023-08-08T11:51:43;91702.50;;;-144.06;21.86
11017;BME280;54687;50.800;6.772;2023-08-08T11:54:09;91476.19;;;-144.06;21.69
11017;BME280;54687;50.800;6.772;2023-08-08T11:56:38;91395.84;;;-144.06;21.71
11017;BME280;54687;50.800;6.772;2023-08-08T11:59:05;91408.53;;;-144.06;21.59
11017;BME280;54687;50.800;6.772;2023-08-08T12:01:33;91226.66;;;-144.06;21.60
11017;BME280;54687;50.800;6.772;2023-08-08T12:04:04;91082.84;;;-144.06;21.50
11017;BME280;54687;50.800;6.772;2023-08-08T12:06:31;90917.91;;;-144.06;21.38
11017;BME280;54687;50.800;6.772;2023-08-08T12:09:01;91201.28;;;-144.06;21.61
11017;BME280;54687;50.800;6.772;2023-08-08T12:11:28;91101.88;;;-144.06;21.61
11017;BME280;54687;50.800;6.772;2023-08-08T12:14:00;91051.13;;;-144.06;21.37
11017;BME280;54687;50.800;6.772;2023-08-08T12:16:28;91249.91;;;-144.06;21.36
11017;BME280;54687;50.800;6.772;2023-08-08T12:18:55;91230.88;;;-144.06;21.47
11017;BME280;54687;50.800;6.772;2023-08-08T12:21:21;91175.91;;;-144.06;21.37
11017;BME280;54687;50.800;6.772;2023-08-08T12:23:48;91065.94;;;-144.06;21.34
11017;BME280;54687;50.800;6.772;2023-08-08T12:26:15;91019.41;;;-144.06;21.25
11017;BME280;54687;50.800;6.772;2023-08-08T12:28:42;90985.59;;;-144.06;21.31
11017;BME280;54687;50.800;6.772;2023-08-08T12:31:10;91233.00;;;-144.06;21.08
11017;BME280;54687;50.800;6.772;2023-08-08T12:33:37;91167.44;;;-144.06;21.37
11017;BME280;54687;50.800;6.772;2023-08-08T12:36:05;91421.22;;;-144.06;21.41
11017;BME280;54687;50.800;6.772;2023-08-08T12:38:31;91495.25;;;-144.06;21.65
11017;BME280;54687;50.800;6.772;2023-08-08T12:41:00;91681.34;;;-144.06;21.87